SBI5127 UNNT-URMM
Flight info
| Callsign | SBI5127 |
|---|---|
| Flight time | N/A |
| Altitude | 34000 |
| Route | LUNIM1K LUNIM B808 DAKIN N55 OGANU DCT ALOTO P574 RIBMO DCT AKT G96 IPLED DCT GOTIK DCT MEMZA A962 OKARU OKARU5B |
| Aircraft | A321/M-SDE3FGHIRWY/LB1 |
Departure
| Time | N/A |
|---|---|
| Airport | Novosibirsk Tolmachevo Airport (UNNT) |
Arrival
| Time | 2026-04-23 12:22 |
|---|---|
| Airport | Mineralnye Vody Airport (URMM) |
| Time | Latitude | Longitude | Altitude | Speed | Heading |
|---|---|---|---|---|---|
| 2026-04-23 09:45 | 50.32661 | 63.48819 | 33899 ft | 393 kts | 236° |
| 2026-04-23 09:45 | 50.30987 | 63.45437 | 33898 ft | 393 kts | 236° |
| 2026-04-23 09:46 | 50.27632 | 63.38692 | 33903 ft | 393 kts | 235° |
| 2026-04-23 09:46 | 50.24269 | 63.31951 | 33894 ft | 393 kts | 235° |
| 2026-04-23 09:47 | 50.20923 | 63.25223 | 33895 ft | 392 kts | 236° |
| 2026-04-23 09:47 | 50.17567 | 63.18499 | 33894 ft | 392 kts | 235° |
| 2026-04-23 09:48 | 50.14204 | 63.11815 | 33899 ft | 392 kts | 235° |
| 2026-04-23 09:48 | 50.10836 | 63.05139 | 33895 ft | 391 kts | 235° |
| 2026-04-23 09:49 | 50.07478 | 62.98482 | 33898 ft | 391 kts | 235° |
| 2026-04-23 09:49 | 50.03963 | 62.92011 | 33897 ft | 395 kts | 227° |
| 2026-04-23 09:50 | 49.99917 | 62.86219 | 33890 ft | 395 kts | 227° |
| 2026-04-23 09:50 | 49.95871 | 62.80452 | 33894 ft | 395 kts | 227° |
| 2026-04-23 09:51 | 49.91820 | 62.74694 | 33893 ft | 394 kts | 227° |
| 2026-04-23 09:51 | 49.87773 | 62.68948 | 33893 ft | 394 kts | 227° |
| 2026-04-23 09:52 | 49.83725 | 62.63213 | 33894 ft | 394 kts | 226° |
| 2026-04-23 09:52 | 49.79672 | 62.57480 | 33888 ft | 394 kts | 226° |
| 2026-04-23 09:53 | 49.75631 | 62.51734 | 33891 ft | 393 kts | 230° |
| 2026-04-23 09:53 | 49.72190 | 62.45247 | 33897 ft | 390 kts | 234° |
| 2026-04-23 09:54 | 49.68823 | 62.38742 | 33885 ft | 390 kts | 234° |
| 2026-04-23 09:54 | 49.65422 | 62.32213 | 33889 ft | 390 kts | 234° |
| 2026-04-23 09:55 | 49.61996 | 62.25656 | 33887 ft | 390 kts | 234° |
| 2026-04-23 09:55 | 49.58614 | 62.19169 | 33881 ft | 390 kts | 234° |
| 2026-04-23 09:56 | 49.55201 | 62.12646 | 33897 ft | 390 kts | 234° |
| 2026-04-23 09:56 | 49.51783 | 62.06141 | 33892 ft | 390 kts | 234° |
| 2026-04-23 09:57 | 49.48367 | 61.99649 | 33887 ft | 390 kts | 234° |
| 2026-04-23 09:57 | 49.44945 | 61.93163 | 33886 ft | 390 kts | 234° |
| 2026-04-23 09:58 | 49.41521 | 61.86696 | 33883 ft | 390 kts | 234° |
| 2026-04-23 09:58 | 49.38092 | 61.80231 | 33885 ft | 390 kts | 233° |
| 2026-04-23 09:59 | 49.34657 | 61.73775 | 33888 ft | 390 kts | 233° |
| 2026-04-23 09:59 | 49.31223 | 61.67329 | 33887 ft | 390 kts | 233° |
| 2026-04-23 10:00 | 49.27785 | 61.60887 | 33885 ft | 390 kts | 233° |
| 2026-04-23 10:00 | 49.24349 | 61.54456 | 33885 ft | 390 kts | 233° |
| 2026-04-23 10:01 | 49.20906 | 61.48028 | 33882 ft | 390 kts | 233° |
| 2026-04-23 10:01 | 49.17454 | 61.41620 | 33884 ft | 391 kts | 233° |
| 2026-04-23 10:02 | 49.13994 | 61.35217 | 33882 ft | 391 kts | 233° |
| 2026-04-23 10:02 | 49.10538 | 61.28819 | 33884 ft | 390 kts | 233° |
| 2026-04-23 10:03 | 49.07077 | 61.22436 | 33873 ft | 390 kts | 233° |
| 2026-04-23 10:03 | 49.03617 | 61.16074 | 33879 ft | 390 kts | 233° |
| 2026-04-23 10:04 | 49.00156 | 61.09706 | 33889 ft | 390 kts | 233° |
| 2026-04-23 10:04 | 48.96695 | 61.03348 | 33887 ft | 390 kts | 233° |
| 2026-04-23 10:05 | 48.93230 | 60.97006 | 33878 ft | 390 kts | 232° |
| 2026-04-23 10:05 | 48.89754 | 60.90671 | 33881 ft | 390 kts | 232° |
| 2026-04-23 10:06 | 48.86270 | 60.84351 | 33873 ft | 390 kts | 232° |
| 2026-04-23 10:06 | 48.82785 | 60.78031 | 33874 ft | 390 kts | 232° |
| 2026-04-23 10:07 | 48.79299 | 60.71717 | 33873 ft | 390 kts | 232° |
| 2026-04-23 10:07 | 48.75804 | 60.65416 | 33872 ft | 391 kts | 232° |
| 2026-04-23 10:08 | 48.72305 | 60.59111 | 33872 ft | 391 kts | 232° |
| 2026-04-23 10:08 | 48.68804 | 60.52802 | 33884 ft | 392 kts | 232° |
| 2026-04-23 10:09 | 48.63535 | 60.43361 | 33885 ft | 392 kts | 232° |
| 2026-04-23 10:09 | 48.60019 | 60.37069 | 33886 ft | 392 kts | 231° |
| 2026-04-23 10:10 | 48.56523 | 60.30838 | 33886 ft | 392 kts | 231° |
| 2026-04-23 10:10 | 48.52994 | 60.24564 | 33893 ft | 392 kts | 231° |
| 2026-04-23 10:11 | 48.49460 | 60.18301 | 33887 ft | 392 kts | 231° |
| 2026-04-23 10:11 | 48.45926 | 60.12039 | 33882 ft | 392 kts | 231° |
| 2026-04-23 10:12 | 48.42382 | 60.05782 | 33885 ft | 393 kts | 231° |
| 2026-04-23 10:12 | 48.38835 | 59.99533 | 33882 ft | 393 kts | 231° |
| 2026-04-23 10:13 | 48.35283 | 59.93287 | 33886 ft | 393 kts | 231° |
| 2026-04-23 10:13 | 48.31722 | 59.87047 | 33886 ft | 393 kts | 231° |
| 2026-04-23 10:14 | 48.28162 | 59.80818 | 33888 ft | 393 kts | 231° |
| 2026-04-23 10:14 | 48.24595 | 59.74598 | 33889 ft | 394 kts | 231° |
| 2026-04-23 10:15 | 48.21017 | 59.68364 | 33888 ft | 394 kts | 231° |
| 2026-04-23 10:15 | 48.17443 | 59.62137 | 33889 ft | 394 kts | 230° |
| 2026-04-23 10:16 | 48.13856 | 59.55921 | 33887 ft | 395 kts | 230° |
| 2026-04-23 10:16 | 48.10254 | 59.49706 | 33886 ft | 395 kts | 230° |
| 2026-04-23 10:17 | 48.06649 | 59.43490 | 33884 ft | 396 kts | 230° |
| 2026-04-23 10:17 | 48.03042 | 59.37272 | 33887 ft | 396 kts | 230° |
| 2026-04-23 10:18 | 47.99423 | 59.31066 | 33882 ft | 396 kts | 230° |
| 2026-04-23 10:18 | 47.96405 | 59.25901 | 33882 ft | 397 kts | 230° |
| 2026-04-23 10:19 | 47.92774 | 59.19690 | 33882 ft | 397 kts | 230° |
| 2026-04-23 10:19 | 47.89143 | 59.13484 | 33882 ft | 398 kts | 230° |
| 2026-04-23 10:20 | 47.85505 | 59.07279 | 33886 ft | 398 kts | 230° |
| 2026-04-23 10:20 | 47.81847 | 59.01076 | 33889 ft | 399 kts | 230° |
| 2026-04-23 10:21 | 47.78189 | 58.94881 | 33890 ft | 399 kts | 229° |
| 2026-04-23 10:21 | 47.74521 | 58.88689 | 33888 ft | 399 kts | 229° |
| 2026-04-23 10:22 | 47.70848 | 58.82499 | 33888 ft | 400 kts | 229° |
| 2026-04-23 10:22 | 47.67169 | 58.76312 | 33895 ft | 400 kts | 229° |
| 2026-04-23 10:23 | 47.63484 | 58.70122 | 33897 ft | 400 kts | 229° |
| 2026-04-23 10:23 | 47.59812 | 58.63970 | 33902 ft | 401 kts | 229° |
| 2026-04-23 10:24 | 47.56104 | 58.57767 | 33908 ft | 401 kts | 229° |
| 2026-04-23 10:24 | 47.52396 | 58.51599 | 33911 ft | 401 kts | 229° |
| 2026-04-23 10:25 | 47.48717 | 58.45474 | 33913 ft | 401 kts | 229° |
| 2026-04-23 10:25 | 47.45005 | 58.39314 | 33910 ft | 401 kts | 229° |
| 2026-04-23 10:26 | 47.41263 | 58.33129 | 33911 ft | 401 kts | 229° |
| 2026-04-23 10:26 | 47.37547 | 58.26981 | 33908 ft | 401 kts | 229° |
| 2026-04-23 10:27 | 47.33848 | 58.20884 | 33908 ft | 401 kts | 229° |
| 2026-04-23 10:27 | 47.30099 | 58.14717 | 33903 ft | 402 kts | 228° |
| 2026-04-23 10:28 | 47.26333 | 58.08630 | 33903 ft | 402 kts | 227° |
| 2026-04-23 10:28 | 47.22559 | 58.02628 | 33902 ft | 402 kts | 227° |
| 2026-04-23 10:29 | 47.18759 | 57.96581 | 33903 ft | 402 kts | 227° |
| 2026-04-23 10:29 | 47.14959 | 57.90533 | 33908 ft | 403 kts | 227° |
| 2026-04-23 10:30 | 47.11154 | 57.84492 | 33912 ft | 403 kts | 227° |
| 2026-04-23 10:30 | 47.07345 | 57.78449 | 33909 ft | 403 kts | 227° |
| 2026-04-23 10:31 | 47.03529 | 57.72411 | 33909 ft | 404 kts | 227° |
| 2026-04-23 10:31 | 46.99709 | 57.66378 | 33907 ft | 404 kts | 227° |
| 2026-04-23 10:32 | 46.95885 | 57.60350 | 33904 ft | 404 kts | 227° |
| 2026-04-23 10:32 | 46.92047 | 57.54330 | 33904 ft | 405 kts | 227° |
| 2026-04-23 10:33 | 46.88207 | 57.48307 | 33908 ft | 405 kts | 227° |
| 2026-04-23 10:33 | 46.84360 | 57.42291 | 33907 ft | 405 kts | 227° |
| 2026-04-23 10:34 | 46.80494 | 57.36263 | 33906 ft | 406 kts | 227° |
| 2026-04-23 10:34 | 46.76644 | 57.30277 | 33902 ft | 406 kts | 227° |
| 2026-04-23 10:35 | 46.72768 | 57.24265 | 33906 ft | 407 kts | 227° |
| 2026-04-23 10:35 | 46.68912 | 57.18274 | 33906 ft | 407 kts | 227° |
| 2026-04-23 10:36 | 46.65024 | 57.12253 | 33909 ft | 407 kts | 227° |
| 2026-04-23 10:36 | 46.61137 | 57.06253 | 33907 ft | 408 kts | 227° |
| 2026-04-23 10:37 | 46.57241 | 57.00263 | 33901 ft | 408 kts | 227° |
| 2026-04-23 10:37 | 46.53334 | 56.94271 | 33904 ft | 409 kts | 227° |
| 2026-04-23 10:38 | 46.49417 | 56.88281 | 33904 ft | 409 kts | 228° |
| 2026-04-23 10:38 | 46.47695 | 56.85009 | 33902 ft | 409 kts | 240° |
| 2026-04-23 10:38 | 46.46344 | 56.81387 | 33904 ft | 409 kts | 241° |
| 2026-04-23 10:39 | 46.43656 | 56.74101 | 33903 ft | 410 kts | 241° |
| 2026-04-23 10:39 | 46.40961 | 56.66814 | 33905 ft | 410 kts | 241° |
| 2026-04-23 10:40 | 46.38286 | 56.59563 | 33899 ft | 411 kts | 241° |
| 2026-04-23 10:40 | 46.35587 | 56.52261 | 33904 ft | 412 kts | 241° |
| 2026-04-23 10:41 | 46.32877 | 56.44955 | 33909 ft | 412 kts | 241° |
| 2026-04-23 10:41 | 46.30160 | 56.37651 | 33906 ft | 412 kts | 241° |
| 2026-04-23 10:42 | 46.27435 | 56.30345 | 33907 ft | 413 kts | 241° |
| 2026-04-23 10:42 | 46.24701 | 56.23046 | 33910 ft | 413 kts | 241° |
| 2026-04-23 10:43 | 46.21967 | 56.15751 | 33918 ft | 413 kts | 242° |
| 2026-04-23 10:43 | 46.19226 | 56.08449 | 33916 ft | 413 kts | 242° |
| 2026-04-23 10:44 | 46.16477 | 56.01168 | 33917 ft | 413 kts | 242° |
| 2026-04-23 10:44 | 46.13722 | 55.93881 | 33916 ft | 414 kts | 242° |
| 2026-04-23 10:45 | 46.10957 | 55.86596 | 33912 ft | 414 kts | 242° |
| 2026-04-23 10:45 | 46.08199 | 55.79356 | 33909 ft | 414 kts | 242° |
| 2026-04-23 10:46 | 46.05421 | 55.72053 | 33908 ft | 415 kts | 242° |
| 2026-04-23 10:46 | 46.02640 | 55.64767 | 33914 ft | 415 kts | 242° |
| 2026-04-23 10:47 | 45.99867 | 55.57533 | 33911 ft | 415 kts | 242° |
| 2026-04-23 10:47 | 45.97060 | 55.50250 | 33914 ft | 415 kts | 242° |
| 2026-04-23 10:48 | 45.94257 | 55.42991 | 33914 ft | 415 kts | 242° |
| 2026-04-23 10:48 | 45.91449 | 55.35708 | 33910 ft | 416 kts | 242° |
| 2026-04-23 10:49 | 45.88656 | 55.28496 | 33910 ft | 416 kts | 242° |
| 2026-04-23 10:49 | 45.85836 | 55.21242 | 33907 ft | 416 kts | 242° |
| 2026-04-23 10:50 | 45.83011 | 55.13986 | 33906 ft | 416 kts | 242° |
| 2026-04-23 10:50 | 45.80173 | 55.06738 | 33906 ft | 416 kts | 242° |
| 2026-04-23 10:51 | 45.77339 | 54.99505 | 33910 ft | 417 kts | 242° |
| 2026-04-23 10:51 | 45.74504 | 54.92268 | 33911 ft | 417 kts | 242° |
| 2026-04-23 10:52 | 45.71666 | 54.85038 | 33915 ft | 417 kts | 242° |
| 2026-04-23 10:52 | 45.68813 | 54.77813 | 33914 ft | 417 kts | 242° |
| 2026-04-23 10:53 | 45.65974 | 54.70649 | 33914 ft | 417 kts | 242° |
| 2026-04-23 10:53 | 45.63114 | 54.63448 | 33907 ft | 417 kts | 241° |
| 2026-04-23 10:54 | 45.60249 | 54.56252 | 33904 ft | 417 kts | 241° |
| 2026-04-23 10:54 | 45.57374 | 54.49052 | 33904 ft | 417 kts | 241° |
| 2026-04-23 10:55 | 45.54501 | 54.41878 | 33902 ft | 417 kts | 241° |
| 2026-04-23 10:55 | 45.51630 | 54.34700 | 33900 ft | 416 kts | 241° |
| 2026-04-23 10:56 | 45.48668 | 54.27338 | 33894 ft | 416 kts | 241° |
| 2026-04-23 10:56 | 45.45780 | 54.20187 | 33892 ft | 417 kts | 241° |
| 2026-04-23 10:57 | 45.42883 | 54.13033 | 33895 ft | 417 kts | 241° |
| 2026-04-23 10:57 | 45.40000 | 54.05929 | 33893 ft | 417 kts | 240° |
| 2026-04-23 10:58 | 45.37091 | 53.98787 | 33892 ft | 417 kts | 240° |
| 2026-04-23 10:58 | 45.34650 | 53.92804 | 33892 ft | 418 kts | 240° |
| 2026-04-23 10:59 | 45.31729 | 53.85664 | 33891 ft | 418 kts | 240° |
| 2026-04-23 10:59 | 45.28803 | 53.78529 | 33887 ft | 418 kts | 240° |
| 2026-04-23 11:00 | 45.25883 | 53.71397 | 33884 ft | 418 kts | 240° |
| 2026-04-23 11:00 | 45.22957 | 53.64272 | 33880 ft | 418 kts | 240° |
| 2026-04-23 11:01 | 45.20018 | 53.57154 | 33882 ft | 418 kts | 240° |
| 2026-04-23 11:01 | 45.17088 | 53.50095 | 33876 ft | 418 kts | 240° |
| 2026-04-23 11:02 | 45.14126 | 53.42985 | 33879 ft | 418 kts | 240° |
| 2026-04-23 11:02 | 45.11164 | 53.35863 | 33879 ft | 419 kts | 240° |
| 2026-04-23 11:03 | 45.08202 | 53.28771 | 33883 ft | 418 kts | 240° |
| 2026-04-23 11:03 | 45.05238 | 53.21673 | 33883 ft | 419 kts | 240° |
| 2026-04-23 11:04 | 45.02272 | 53.14579 | 33884 ft | 419 kts | 240° |
| 2026-04-23 11:04 | 44.99330 | 53.07563 | 33878 ft | 405 kts | 240° |
| 2026-04-23 11:05 | 44.96497 | 53.00851 | 33877 ft | 398 kts | 240° |
| 2026-04-23 11:05 | 44.93667 | 52.94158 | 33876 ft | 397 kts | 240° |
| 2026-04-23 11:06 | 44.89427 | 52.84137 | 33873 ft | 396 kts | 240° |
| 2026-04-23 11:07 | 44.86601 | 52.77477 | 33870 ft | 396 kts | 240° |
| 2026-04-23 11:07 | 44.83766 | 52.70825 | 33875 ft | 395 kts | 240° |
| 2026-04-23 11:08 | 44.80931 | 52.64196 | 33868 ft | 395 kts | 240° |
| 2026-04-23 11:08 | 44.78097 | 52.57571 | 33872 ft | 394 kts | 240° |
| 2026-04-23 11:09 | 44.75272 | 52.50967 | 33869 ft | 394 kts | 240° |
| 2026-04-23 11:09 | 44.72438 | 52.44372 | 33871 ft | 394 kts | 240° |
| 2026-04-23 11:10 | 44.69626 | 52.37816 | 33861 ft | 393 kts | 240° |
| 2026-04-23 11:10 | 44.66794 | 52.31239 | 33865 ft | 393 kts | 239° |
| 2026-04-23 11:11 | 44.63950 | 52.24675 | 33862 ft | 394 kts | 239° |
| 2026-04-23 11:11 | 44.61097 | 52.18117 | 33856 ft | 394 kts | 239° |
| 2026-04-23 11:12 | 44.58252 | 52.11555 | 33857 ft | 394 kts | 239° |
| 2026-04-23 11:12 | 44.55401 | 52.05001 | 33859 ft | 394 kts | 239° |
| 2026-04-23 11:13 | 44.52540 | 51.98459 | 33865 ft | 394 kts | 239° |
| 2026-04-23 11:13 | 44.49673 | 51.91924 | 33864 ft | 393 kts | 239° |
| 2026-04-23 11:14 | 44.46817 | 51.85397 | 33865 ft | 393 kts | 239° |
| 2026-04-23 11:14 | 44.43952 | 51.78874 | 33867 ft | 393 kts | 239° |
| 2026-04-23 11:15 | 44.41083 | 51.72359 | 33868 ft | 393 kts | 239° |
| 2026-04-23 11:15 | 44.38206 | 51.65864 | 33871 ft | 393 kts | 239° |
| 2026-04-23 11:16 | 44.35324 | 51.59370 | 33873 ft | 393 kts | 239° |
| 2026-04-23 11:16 | 44.32467 | 51.52914 | 33870 ft | 392 kts | 239° |
| 2026-04-23 11:17 | 44.29588 | 51.46426 | 33875 ft | 392 kts | 239° |
| 2026-04-23 11:17 | 44.26694 | 51.39946 | 33872 ft | 392 kts | 239° |
| 2026-04-23 11:18 | 44.23808 | 51.33486 | 33871 ft | 392 kts | 239° |
| 2026-04-23 11:18 | 44.20921 | 51.27027 | 33870 ft | 392 kts | 239° |
| 2026-04-23 11:19 | 44.18047 | 51.20600 | 33865 ft | 392 kts | 239° |
| 2026-04-23 11:19 | 44.15143 | 51.14147 | 33862 ft | 392 kts | 239° |
| 2026-04-23 11:20 | 44.12249 | 51.07736 | 33855 ft | 393 kts | 239° |
| 2026-04-23 11:20 | 44.09334 | 51.01292 | 33853 ft | 393 kts | 238° |
| 2026-04-23 11:21 | 44.06412 | 50.94845 | 33854 ft | 393 kts | 238° |
| 2026-04-23 11:21 | 44.03512 | 50.88446 | 33852 ft | 394 kts | 238° |
| 2026-04-23 11:22 | 44.00597 | 50.81960 | 33854 ft | 394 kts | 239° |
| 2026-04-23 11:22 | 43.97698 | 50.75522 | 33859 ft | 394 kts | 238° |
| 2026-04-23 11:23 | 43.94775 | 50.69070 | 33859 ft | 394 kts | 238° |
| 2026-04-23 11:23 | 43.91848 | 50.62623 | 33862 ft | 394 kts | 238° |
| 2026-04-23 11:24 | 43.88940 | 50.56230 | 33862 ft | 394 kts | 238° |
| 2026-04-23 11:24 | 43.86003 | 50.49794 | 33866 ft | 394 kts | 238° |
| 2026-04-23 11:25 | 43.83063 | 50.43373 | 33863 ft | 394 kts | 238° |
| 2026-04-23 11:25 | 43.80125 | 50.36954 | 33865 ft | 394 kts | 238° |
| 2026-04-23 11:26 | 43.77202 | 50.30572 | 33867 ft | 394 kts | 238° |
| 2026-04-23 11:26 | 43.74213 | 50.24061 | 33860 ft | 405 kts | 238° |
| 2026-04-23 11:27 | 43.71168 | 50.17462 | 33858 ft | 408 kts | 238° |
| 2026-04-23 11:27 | 43.68109 | 50.10852 | 33856 ft | 407 kts | 238° |
| 2026-04-23 11:28 | 43.65071 | 50.04291 | 33853 ft | 407 kts | 238° |
| 2026-04-23 11:28 | 43.62023 | 49.97704 | 33860 ft | 407 kts | 238° |
| 2026-04-23 11:29 | 43.58961 | 49.91116 | 33859 ft | 407 kts | 238° |
| 2026-04-23 11:29 | 43.55918 | 49.84605 | 33864 ft | 406 kts | 238° |
| 2026-04-23 11:30 | 43.52851 | 49.78055 | 33869 ft | 406 kts | 238° |
| 2026-04-23 11:30 | 43.49792 | 49.71518 | 33869 ft | 405 kts | 238° |
| 2026-04-23 11:31 | 43.46741 | 49.64994 | 33868 ft | 405 kts | 238° |
| 2026-04-23 11:31 | 43.43680 | 49.58488 | 33869 ft | 404 kts | 238° |
| 2026-04-23 11:32 | 43.40932 | 49.51763 | 33868 ft | 402 kts | 250° |
| 2026-04-23 11:32 | 43.39930 | 49.44262 | 33862 ft | 404 kts | 269° |
| 2026-04-23 11:33 | 43.40244 | 49.36516 | 33869 ft | 405 kts | 271° |
| 2026-04-23 11:33 | 43.40559 | 49.28790 | 33871 ft | 404 kts | 271° |
| 2026-04-23 11:34 | 43.40853 | 49.21109 | 33877 ft | 404 kts | 270° |
| 2026-04-23 11:34 | 43.41138 | 49.13438 | 33872 ft | 394 kts | 270° |
| 2026-04-23 11:35 | 43.41430 | 49.05963 | 33877 ft | 389 kts | 270° |
| 2026-04-23 11:35 | 43.41722 | 48.98535 | 33878 ft | 388 kts | 270° |
| 2026-04-23 11:36 | 43.41995 | 48.91155 | 33887 ft | 388 kts | 270° |
| 2026-04-23 11:36 | 43.42262 | 48.83739 | 33887 ft | 388 kts | 269° |
| 2026-04-23 11:37 | 43.42523 | 48.76322 | 33889 ft | 387 kts | 269° |
| 2026-04-23 11:37 | 43.42783 | 48.68960 | 33896 ft | 387 kts | 269° |
| 2026-04-23 11:38 | 43.43042 | 48.61537 | 33900 ft | 387 kts | 269° |
| 2026-04-23 11:38 | 43.43297 | 48.54167 | 33901 ft | 387 kts | 269° |
| 2026-04-23 11:39 | 43.43551 | 48.46752 | 33902 ft | 387 kts | 269° |
| 2026-04-23 11:39 | 43.43786 | 48.39341 | 33902 ft | 387 kts | 269° |
| 2026-04-23 11:40 | 43.44022 | 48.31966 | 33906 ft | 387 kts | 269° |
| 2026-04-23 11:40 | 43.44255 | 48.24548 | 33912 ft | 388 kts | 269° |
| 2026-04-23 11:41 | 43.44483 | 48.17155 | 33906 ft | 388 kts | 269° |
| 2026-04-23 11:41 | 43.44709 | 48.09722 | 33911 ft | 389 kts | 268° |
| 2026-04-23 11:42 | 43.44929 | 48.02274 | 33914 ft | 389 kts | 268° |
| 2026-04-23 11:42 | 43.45142 | 47.94869 | 33912 ft | 389 kts | 268° |
| 2026-04-23 11:43 | 43.45347 | 47.87409 | 33916 ft | 390 kts | 268° |
| 2026-04-23 11:43 | 43.45552 | 47.79943 | 33913 ft | 390 kts | 268° |
| 2026-04-23 11:44 | 43.45749 | 47.72504 | 33917 ft | 390 kts | 268° |
| 2026-04-23 11:44 | 43.45942 | 47.65028 | 33920 ft | 391 kts | 268° |
| 2026-04-23 11:45 | 43.46099 | 47.58814 | 33920 ft | 391 kts | 268° |
| 2026-04-23 11:45 | 43.46288 | 47.51324 | 33921 ft | 391 kts | 268° |
| 2026-04-23 11:46 | 43.46469 | 47.43836 | 33917 ft | 391 kts | 268° |
| 2026-04-23 11:46 | 43.46645 | 47.36344 | 33921 ft | 392 kts | 268° |
| 2026-04-23 11:47 | 43.46823 | 47.28848 | 33913 ft | 392 kts | 268° |
| 2026-04-23 11:47 | 43.46987 | 47.21339 | 33918 ft | 393 kts | 268° |
| 2026-04-23 11:48 | 43.47147 | 47.13816 | 33914 ft | 393 kts | 268° |
| 2026-04-23 11:48 | 43.47309 | 47.06295 | 33910 ft | 393 kts | 268° |
| 2026-04-23 11:49 | 43.47471 | 46.98761 | 33913 ft | 394 kts | 268° |
| 2026-04-23 11:49 | 43.47618 | 46.91221 | 33915 ft | 394 kts | 268° |
| 2026-04-23 11:50 | 43.47755 | 46.83683 | 33917 ft | 394 kts | 268° |
| 2026-04-23 11:50 | 43.47893 | 46.76145 | 33911 ft | 394 kts | 268° |
| 2026-04-23 11:51 | 43.48028 | 46.68663 | 33917 ft | 393 kts | 268° |
| 2026-04-23 11:51 | 43.48160 | 46.61088 | 33919 ft | 393 kts | 268° |
| 2026-04-23 11:52 | 43.48287 | 46.53562 | 33921 ft | 393 kts | 269° |
| 2026-04-23 11:52 | 43.48407 | 46.46090 | 33919 ft | 392 kts | 268° |
| 2026-04-23 11:53 | 43.48512 | 46.38586 | 33918 ft | 392 kts | 268° |
| 2026-04-23 11:53 | 43.48620 | 46.31093 | 33916 ft | 391 kts | 268° |
| 2026-04-23 11:54 | 43.48730 | 46.23603 | 33918 ft | 391 kts | 268° |
| 2026-04-23 11:54 | 43.48824 | 46.16107 | 33908 ft | 391 kts | 268° |
| 2026-04-23 11:55 | 43.48913 | 46.08621 | 33910 ft | 391 kts | 268° |
| 2026-04-23 11:55 | 43.49210 | 46.01123 | 33909 ft | 393 kts | 273° |
| 2026-04-23 11:56 | 43.49838 | 45.93684 | 33911 ft | 393 kts | 273° |
| 2026-04-23 11:56 | 43.50463 | 45.86188 | 33916 ft | 393 kts | 273° |
| 2026-04-23 11:57 | 43.51085 | 45.78706 | 33914 ft | 393 kts | 273° |
| 2026-04-23 11:57 | 43.51694 | 45.71277 | 33918 ft | 392 kts | 273° |
| 2026-04-23 11:58 | 43.52301 | 45.63778 | 33918 ft | 392 kts | 273° |
| 2026-04-23 11:58 | 43.52896 | 45.56334 | 33916 ft | 393 kts | 273° |
| 2026-04-23 11:59 | 43.53498 | 45.48802 | 33913 ft | 393 kts | 273° |
| 2026-04-23 11:59 | 43.53793 | 45.45111 | 33767 ft | 393 kts | 273° |
| 2026-04-23 11:59 | 43.54093 | 45.41365 | 33487 ft | 393 kts | 273° |
| 2026-04-23 11:59 | 43.54391 | 45.37608 | 33203 ft | 394 kts | 273° |
| 2026-04-23 12:00 | 43.54686 | 45.33852 | 32939 ft | 395 kts | 273° |
| 2026-04-23 12:00 | 43.54978 | 45.30076 | 32655 ft | 396 kts | 272° |
| 2026-04-23 12:00 | 43.55265 | 45.26291 | 32380 ft | 397 kts | 272° |
| 2026-04-23 12:00 | 43.55553 | 45.22499 | 32113 ft | 398 kts | 272° |
| 2026-04-23 12:01 | 43.55842 | 45.18697 | 31852 ft | 399 kts | 272° |
| 2026-04-23 12:01 | 43.56134 | 45.14892 | 31593 ft | 400 kts | 272° |
| 2026-04-23 12:01 | 43.56430 | 45.11075 | 31337 ft | 400 kts | 272° |
| 2026-04-23 12:01 | 43.56720 | 45.07260 | 31078 ft | 401 kts | 272° |
| 2026-04-23 12:02 | 43.57001 | 45.03491 | 30834 ft | 401 kts | 272° |
| 2026-04-23 12:02 | 43.57286 | 44.99653 | 30403 ft | 402 kts | 272° |
| 2026-04-23 12:02 | 43.57572 | 44.95791 | 29367 ft | 406 kts | 272° |
| 2026-04-23 12:02 | 43.57861 | 44.91910 | 28465 ft | 405 kts | 272° |
| 2026-04-23 12:03 | 43.58149 | 44.88059 | 27812 ft | 400 kts | 271° |
| 2026-04-23 12:03 | 43.58433 | 44.84273 | 27306 ft | 393 kts | 271° |
| 2026-04-23 12:03 | 43.58709 | 44.80560 | 26743 ft | 387 kts | 271° |
| 2026-04-23 12:03 | 43.58978 | 44.76902 | 26202 ft | 381 kts | 271° |
| 2026-04-23 12:04 | 43.59241 | 44.73294 | 25669 ft | 375 kts | 271° |
| 2026-04-23 12:04 | 43.59498 | 44.69737 | 25152 ft | 370 kts | 271° |
| 2026-04-23 12:04 | 43.59752 | 44.66228 | 24622 ft | 365 kts | 271° |
| 2026-04-23 12:04 | 43.60001 | 44.62770 | 24129 ft | 359 kts | 271° |
| 2026-04-23 12:05 | 43.60245 | 44.59366 | 23636 ft | 356 kts | 271° |
| 2026-04-23 12:05 | 43.60484 | 44.56027 | 23126 ft | 353 kts | 271° |
| 2026-04-23 12:05 | 43.60725 | 44.52626 | 22621 ft | 350 kts | 270° |
| 2026-04-23 12:05 | 43.60958 | 44.49298 | 22170 ft | 347 kts | 270° |
| 2026-04-23 12:06 | 43.61185 | 44.46033 | 21721 ft | 345 kts | 270° |
| 2026-04-23 12:06 | 43.61412 | 44.42756 | 21299 ft | 342 kts | 270° |
| 2026-04-23 12:06 | 43.61860 | 44.36277 | 20468 ft | 337 kts | 270° |
| 2026-04-23 12:07 | 43.62082 | 44.33069 | 20071 ft | 334 kts | 270° |
| 2026-04-23 12:07 | 43.62303 | 44.29885 | 19677 ft | 332 kts | 270° |
| 2026-04-23 12:07 | 43.62520 | 44.26720 | 19295 ft | 330 kts | 270° |
| 2026-04-23 12:07 | 43.62735 | 44.23569 | 18924 ft | 328 kts | 270° |
| 2026-04-23 12:08 | 43.62946 | 44.20445 | 18546 ft | 326 kts | 270° |
| 2026-04-23 12:08 | 43.63190 | 44.17322 | 18174 ft | 326 kts | 275° |
| 2026-04-23 12:08 | 43.63784 | 44.14325 | 17784 ft | 330 kts | 285° |
| 2026-04-23 12:08 | 43.64831 | 44.11471 | 17324 ft | 337 kts | 296° |
| 2026-04-23 12:09 | 43.66311 | 44.08914 | 16880 ft | 344 kts | 305° |
| 2026-04-23 12:09 | 43.67937 | 44.06499 | 16422 ft | 342 kts | 304° |
| 2026-04-23 12:09 | 43.69548 | 44.04093 | 15976 ft | 340 kts | 304° |
| 2026-04-23 12:09 | 43.71146 | 44.01691 | 15509 ft | 339 kts | 304° |
| 2026-04-23 12:10 | 43.72734 | 43.99297 | 15046 ft | 337 kts | 304° |
| 2026-04-23 12:10 | 43.74317 | 43.96906 | 14598 ft | 336 kts | 304° |
| 2026-04-23 12:10 | 43.75892 | 43.94524 | 14109 ft | 335 kts | 304° |
| 2026-04-23 12:10 | 43.77461 | 43.92150 | 13635 ft | 334 kts | 304° |
| 2026-04-23 12:11 | 43.79027 | 43.89780 | 13126 ft | 334 kts | 305° |
| 2026-04-23 12:11 | 43.80592 | 43.87405 | 12650 ft | 334 kts | 305° |
| 2026-04-23 12:11 | 43.82153 | 43.85031 | 12164 ft | 334 kts | 306° |
| 2026-04-23 12:11 | 43.83721 | 43.82646 | 11687 ft | 334 kts | 307° |
| 2026-04-23 12:12 | 43.85265 | 43.80246 | 11204 ft | 333 kts | 305° |
| 2026-04-23 12:12 | 43.86729 | 43.77760 | 10752 ft | 333 kts | 304° |
| 2026-04-23 12:12 | 43.88122 | 43.75258 | 10514 ft | 321 kts | 303° |
| 2026-04-23 12:12 | 43.89441 | 43.72844 | 10392 ft | 307 kts | 303° |
| 2026-04-23 12:13 | 43.90708 | 43.70513 | 10159 ft | 299 kts | 303° |
| 2026-04-23 12:13 | 43.91952 | 43.68229 | 9933 ft | 296 kts | 304° |
| 2026-04-23 12:13 | 43.93197 | 43.65956 | 9816 ft | 296 kts | 304° |
| 2026-04-23 12:13 | 43.94447 | 43.63686 | 9699 ft | 296 kts | 305° |
| 2026-04-23 12:14 | 43.95701 | 43.61418 | 9552 ft | 296 kts | 305° |
| 2026-04-23 12:14 | 43.96956 | 43.59156 | 9339 ft | 296 kts | 306° |
| 2026-04-23 12:14 | 43.98215 | 43.56892 | 8860 ft | 295 kts | 306° |
| 2026-04-23 12:14 | 43.99464 | 43.54646 | 8480 ft | 291 kts | 306° |
| 2026-04-23 12:15 | 44.00697 | 43.52425 | 8037 ft | 290 kts | 306° |
| 2026-04-23 12:15 | 44.01913 | 43.50227 | 7521 ft | 285 kts | 307° |
| 2026-04-23 12:15 | 44.03110 | 43.48060 | 6839 ft | 280 kts | 307° |
| 2026-04-23 12:15 | 44.04287 | 43.45930 | 6117 ft | 275 kts | 307° |
| 2026-04-23 12:16 | 44.05436 | 43.43851 | 5515 ft | 268 kts | 307° |
| 2026-04-23 12:16 | 44.06554 | 43.41822 | 5160 ft | 255 kts | 307° |
| 2026-04-23 12:16 | 44.07584 | 43.39950 | 5099 ft | 238 kts | 307° |
| 2026-04-23 12:16 | 44.08589 | 43.38122 | 5044 ft | 238 kts | 307° |
| 2026-04-23 12:17 | 44.09594 | 43.36368 | 4982 ft | 225 kts | 312° |
| 2026-04-23 12:17 | 44.10574 | 43.34741 | 4870 ft | 216 kts | 306° |
| 2026-04-23 12:17 | 44.11411 | 43.33053 | 4781 ft | 213 kts | 303° |
| 2026-04-23 12:17 | 44.12188 | 43.31369 | 4649 ft | 201 kts | 302° |
| 2026-04-23 12:18 | 44.12921 | 43.29763 | 4385 ft | 193 kts | 302° |
| 2026-04-23 12:18 | 44.13631 | 43.28207 | 4117 ft | 188 kts | 302° |
| 2026-04-23 12:18 | 44.14320 | 43.26695 | 3877 ft | 183 kts | 302° |
| 2026-04-23 12:18 | 44.14997 | 43.25211 | 3626 ft | 179 kts | 302° |
| 2026-04-23 12:19 | 44.15660 | 43.23755 | 3379 ft | 177 kts | 302° |
| 2026-04-23 12:19 | 44.16319 | 43.22308 | 3138 ft | 172 kts | 302° |
| 2026-04-23 12:19 | 44.16937 | 43.20951 | 2925 ft | 166 kts | 302° |
| 2026-04-23 12:19 | 44.17544 | 43.19617 | 2692 ft | 159 kts | 302° |
| 2026-04-23 12:20 | 44.18121 | 43.18349 | 2471 ft | 152 kts | 302° |
| 2026-04-23 12:20 | 44.18682 | 43.17116 | 2251 ft | 149 kts | 302° |
| 2026-04-23 12:20 | 44.19233 | 43.15901 | 2034 ft | 147 kts | 303° |
| 2026-04-23 12:20 | 44.19786 | 43.14684 | 1814 ft | 147 kts | 303° |
| 2026-04-23 12:21 | 44.20322 | 43.13495 | 1605 ft | 147 kts | 303° |
| 2026-04-23 12:21 | 44.20869 | 43.12294 | 1415 ft | 148 kts | 303° |
| 2026-04-23 12:21 | 44.21417 | 43.11075 | 1221 ft | 149 kts | 302° |
| 2026-04-23 12:21 | 44.21971 | 43.09852 | 1060 ft | 145 kts | 303° |
| 2026-04-23 12:22 | 44.22430 | 43.08852 | 1054 ft | 93 kts | 302° |
| 2026-04-23 12:22 | 44.22681 | 43.08298 | 1050 ft | 44 kts | 302° |
| 2026-04-23 12:22 | 44.22787 | 43.08064 | 1049 ft | 24 kts | 302° |
| 2026-04-23 12:22 | 44.22863 | 43.07898 | 1050 ft | 19 kts | 303° |
| 2026-04-23 12:23 | 44.22927 | 43.07757 | 1051 ft | 16 kts | 301° |
| 2026-04-23 12:23 | 44.22976 | 43.07617 | 1051 ft | 15 kts | 291° |
| 2026-04-23 12:23 | 44.23018 | 43.07547 | 1052 ft | 5 kts | 358° |
| 2026-04-23 12:23 | 44.23017 | 43.07564 | 1052 ft | 2 kts | 117° |
| 2026-04-23 12:24 | 44.22994 | 43.07612 | 1052 ft | 10 kts | 123° |
| 2026-04-23 12:24 | 44.22943 | 43.07722 | 1051 ft | 17 kts | 122° |
| 2026-04-23 12:24 | 44.22875 | 43.07874 | 1050 ft | 19 kts | 122° |
| 2026-04-23 12:24 | 44.22800 | 43.08033 | 1049 ft | 19 kts | 123° |
| 2026-04-23 12:25 | 44.22732 | 43.08185 | 1050 ft | 18 kts | 122° |
| 2026-04-23 12:25 | 44.22665 | 43.08331 | 1051 ft | 17 kts | 122° |
| 2026-04-23 12:25 | 44.22609 | 43.08456 | 1054 ft | 14 kts | 122° |
| 2026-04-23 12:25 | 44.22556 | 43.08571 | 1053 ft | 14 kts | 123° |
| 2026-04-23 12:26 | 44.22506 | 43.08676 | 1055 ft | 12 kts | 125° |
| 2026-04-23 12:26 | 44.22451 | 43.08756 | 1055 ft | 12 kts | 138° |
| 2026-04-23 12:26 | 44.22381 | 43.08826 | 1052 ft | 13 kts | 150° |
| 2026-04-23 12:26 | 44.22302 | 43.08885 | 1052 ft | 12 kts | 152° |
| 2026-04-23 12:27 | 44.22230 | 43.08936 | 1053 ft | 11 kts | 153° |
| 2026-04-23 12:27 | 44.22166 | 43.08984 | 1053 ft | 10 kts | 152° |
| 2026-04-23 12:27 | 44.22104 | 43.09030 | 1052 ft | 10 kts | 152° |
| 2026-04-23 12:27 | 44.22043 | 43.09075 | 1052 ft | 10 kts | 152° |
| 2026-04-23 12:28 | 44.21993 | 43.09111 | 1051 ft | 7 kts | 152° |
| 2026-04-23 12:28 | 44.21959 | 43.09130 | 1051 ft | 5 kts | 174° |
| 2026-04-23 12:28 | 44.21930 | 43.09118 | 1051 ft | 4 kts | 206° |
| 2026-04-23 12:28 | 44.21910 | 43.09102 | 1051 ft | 3 kts | 209° |
| 2026-04-23 12:29 | 44.21891 | 43.09087 | 1051 ft | 4 kts | 210° |
| 2026-04-23 12:29 | 44.21862 | 43.09064 | 1051 ft | 4 kts | 209° |
| 2026-04-23 12:29 | 44.21838 | 43.09058 | 1051 ft | 3 kts | 173° |
| 2026-04-23 12:29 | 44.21813 | 43.09085 | 1051 ft | 5 kts | 128° |
| 2026-04-23 12:30 | 44.21793 | 43.09116 | 1051 ft | 3 kts | 145° |
| 2026-04-23 12:30 | 44.21771 | 43.09116 | 1051 ft | 5 kts | 193° |
| 2026-04-23 12:30 | 44.21744 | 43.09096 | 1051 ft | 4 kts | 210° |
| 2026-04-23 12:30 | 44.21730 | 43.09085 | 1051 ft | 1 kts | 212° |
| 2026-04-23 12:31 | 44.21729 | 43.09084 | 1051 ft | 0 kts | 212° |
| 2026-04-23 12:31 | 44.21727 | 43.09082 | 1051 ft | 1 kts | 212° |
| 2026-04-23 12:31 | 44.21722 | 43.09077 | 1051 ft | 0 kts | 212° |
| 2026-04-23 12:32 | 44.21720 | 43.09076 | 1051 ft | 0 kts | 212° |
| 2026-04-23 12:32 | 44.21716 | 43.09073 | 1051 ft | 1 kts | 212° |
| 2026-04-23 12:32 | 44.21716 | 43.09072 | 1051 ft | 0 kts | 212° |